Terminal Aerodrome Forecast
Issued by NWS

Home | Current Version | Previous Version | Text Only | Print | Product List | Glossary On
Versions: 1 2 3 4 5 6 7 8 9 10 11 12 13 14 15 16
000
FTUS43 KGRB 012338
TAFMTW
TAF
KMTW 012338Z 0200/0224 20004KT P6SM BKN250
     FM020400 23003KT 5SM BR SCT140 BKN200
     FM020900 24003KT 4SM BR FEW004 SCT140 BKN200
      TEMPO 0209/0213 1 1/2SM BR SCT004 BKN140
     FM021400 29006KT P6SM SCT020 BKN120 PROB30 0221/0224 5SM -SHRA
      BR BKN020=

USA.gov is the U.S. government's official web portal to all federal, state and local government web resources and services.